sensor_id;sensor_type;location;lat;lon;timestamp;P1;durP1;ratioP1;P2;durP2;ratioP2
10894;SDS011;5500;49.886;8.074;2023-11-19T00:00:28;1.00;;;0.70;;
10894;SDS011;5500;49.886;8.074;2023-11-19T00:02:57;2.30;;;0.73;;
10894;SDS011;5500;49.886;8.074;2023-11-19T00:05:26;0.73;;;0.63;;
10894;SDS011;5500;49.886;8.074;2023-11-19T00:07:55;1.00;;;0.80;;
10894;SDS011;5500;49.886;8.074;2023-11-19T00:10:23;1.87;;;0.80;;
10894;SDS011;5500;49.886;8.074;2023-11-19T00:12:53;0.87;;;0.83;;
10894;SDS011;5500;49.886;8.074;2023-11-19T00:15:23;3.40;;;0.60;;
10894;SDS011;5500;49.886;8.074;2023-11-19T00:17:52;0.50;;;0.50;;
10894;SDS011;5500;49.886;8.074;2023-11-19T00:20:22;1.00;;;0.70;;
10894;SDS011;5500;49.886;8.074;2023-11-19T00:22:51;0.60;;;0.60;;
10894;SDS011;5500;49.886;8.074;2023-11-19T00:25:20;1.10;;;0.57;;
10894;SDS011;5500;49.886;8.074;2023-11-19T00:27:54;1.30;;;0.63;;
10894;SDS011;5500;49.886;8.074;2023-11-19T00:30:23;0.87;;;0.63;;
10894;SDS011;5500;49.886;8.074;2023-11-19T00:32:50;0.60;;;0.60;;
10894;SDS011;5500;49.886;8.074;2023-11-19T00:35:18;1.13;;;0.70;;
10894;SDS011;5500;49.886;8.074;2023-11-19T00:37:46;0.60;;;0.60;;
10894;SDS011;5500;49.886;8.074;2023-11-19T00:40:15;0.60;;;0.50;;
10894;SDS011;5500;49.886;8.074;2023-11-19T00:42:45;0.30;;;0.30;;
10894;SDS011;5500;49.886;8.074;2023-11-19T00:45:14;3.23;;;0.67;;
10894;SDS011;5500;49.886;8.074;2023-11-19T00:47:42;0.80;;;0.67;;
10894;SDS011;5500;49.886;8.074;2023-11-19T00:50:10;0.60;;;0.60;;
10894;SDS011;5500;49.886;8.074;2023-11-19T00:52:39;0.70;;;0.60;;
10894;SDS011;5500;49.886;8.074;2023-11-19T00:55:07;0.60;;;0.60;;
10894;SDS011;5500;49.886;8.074;2023-11-19T00:57:35;0.70;;;0.70;;
10894;SDS011;5500;49.886;8.074;2023-11-19T01:00:03;0.50;;;0.50;;
10894;SDS011;5500;49.886;8.074;2023-11-19T01:02:38;0.50;;;0.50;;
10894;SDS011;5500;49.886;8.074;2023-11-19T01:05:07;0.50;;;0.50;;
10894;SDS011;5500;49.886;8.074;2023-11-19T01:07:35;0.60;;;0.50;;
10894;SDS011;5500;49.886;8.074;2023-11-19T01:10:03;0.27;;;0.27;;
10894;SDS011;5500;49.886;8.074;2023-11-19T01:12:32;0.67;;;0.47;;
10894;SDS011;5500;49.886;8.074;2023-11-19T01:15:00;0.40;;;0.40;;
10894;SDS011;5500;49.886;8.074;2023-11-19T01:17:28;0.20;;;0.20;;
10894;SDS011;5500;49.886;8.074;2023-11-19T01:19:59;0.77;;;0.40;;
10894;SDS011;5500;49.886;8.074;2023-11-19T01:22:27;0.63;;;0.40;;
10894;SDS011;5500;49.886;8.074;2023-11-19T01:24:54;1.53;;;0.60;;
10894;SDS011;5500;49.886;8.074;2023-11-19T01:27:22;0.40;;;0.40;;
10894;SDS011;5500;49.886;8.074;2023-11-19T01:29:50;0.30;;;0.30;;
10894;SDS011;5500;49.886;8.074;2023-11-19T01:32:18;0.63;;;0.40;;
10894;SDS011;5500;49.886;8.074;2023-11-19T01:34:45;0.40;;;0.40;;
10894;SDS011;5500;49.886;8.074;2023-11-19T01:37:14;0.30;;;0.30;;
10894;SDS011;5500;49.886;8.074;2023-11-19T01:39:43;0.33;;;0.33;;
10894;SDS011;5500;49.886;8.074;2023-11-19T01:42:11;0.23;;;0.23;;
10894;SDS011;5500;49.886;8.074;2023-11-19T01:44:39;2.83;;;0.40;;
10894;SDS011;5500;49.886;8.074;2023-11-19T01:47:07;0.30;;;0.27;;
10894;SDS011;5500;49.886;8.074;2023-11-19T01:49:35;0.30;;;0.30;;
10894;SDS011;5500;49.886;8.074;2023-11-19T01:52:03;0.53;;;0.43;;
10894;SDS011;5500;49.886;8.074;2023-11-19T01:54:33;0.40;;;0.40;;
10894;SDS011;5500;49.886;8.074;2023-11-19T01:57:01;1.50;;;0.23;;
10894;SDS011;5500;49.886;8.074;2023-11-19T01:59:29;0.40;;;0.30;;
10894;SDS011;5500;49.886;8.074;2023-11-19T02:01:56;1.43;;;0.23;;
10894;SDS011;5500;49.886;8.074;2023-11-19T02:04:27;0.60;;;0.60;;
10894;SDS011;5500;49.886;8.074;2023-11-19T02:06:56;0.83;;;0.20;;
10894;SDS011;5500;49.886;8.074;2023-11-19T02:09:24;0.27;;;0.27;;
10894;SDS011;5500;49.886;8.074;2023-11-19T02:11:53;0.10;;;0.10;;
10894;SDS011;5500;49.886;8.074;2023-11-19T02:14:22;0.30;;;0.30;;
10894;SDS011;5500;49.886;8.074;2023-11-19T02:16:51;0.50;;;0.50;;
10894;SDS011;5500;49.886;8.074;2023-11-19T02:19:19;0.40;;;0.40;;
10894;SDS011;5500;49.886;8.074;2023-11-19T02:21:47;0.30;;;0.30;;
10894;SDS011;5500;49.886;8.074;2023-11-19T02:24:15;0.50;;;0.50;;
10894;SDS011;5500;49.886;8.074;2023-11-19T02:26:45;0.20;;;0.20;;
10894;SDS011;5500;49.886;8.074;2023-11-19T02:29:18;0.60;;;0.50;;
10894;SDS011;5500;49.886;8.074;2023-11-19T02:31:46;0.37;;;0.37;;
10894;SDS011;5500;49.886;8.074;2023-11-19T02:34:14;0.57;;;0.20;;
10894;SDS011;5500;49.886;8.074;2023-11-19T02:36:42;0.30;;;0.20;;
10894;SDS011;5500;49.886;8.074;2023-11-19T02:39:10;0.60;;;0.50;;
10894;SDS011;5500;49.886;8.074;2023-11-19T02:41:39;0.40;;;0.40;;
10894;SDS011;5500;49.886;8.074;2023-11-19T02:44:07;0.70;;;0.50;;
10894;SDS011;5500;49.886;8.074;2023-11-19T02:46:36;0.57;;;0.57;;
10894;SDS011;5500;49.886;8.074;2023-11-19T02:49:03;0.40;;;0.40;;
10894;SDS011;5500;49.886;8.074;2023-11-19T02:51:33;0.60;;;0.40;;
10894;SDS011;5500;49.886;8.074;2023-11-19T02:54:01;0.40;;;0.40;;
10894;SDS011;5500;49.886;8.074;2023-11-19T02:56:29;0.70;;;0.60;;
10894;SDS011;5500;49.886;8.074;2023-11-19T02:59:01;0.43;;;0.43;;
10894;SDS011;5500;49.886;8.074;2023-11-19T03:01:33;0.40;;;0.40;;
10894;SDS011;5500;49.886;8.074;2023-11-19T03:04:03;0.50;;;0.50;;
10894;SDS011;5500;49.886;8.074;2023-11-19T03:06:32;2.60;;;0.90;;
10894;SDS011;5500;49.886;8.074;2023-11-19T03:08:59;0.70;;;0.70;;
10894;SDS011;5500;49.886;8.074;2023-11-19T03:11:32;0.60;;;0.47;;
10894;SDS011;5500;49.886;8.074;2023-11-19T03:14:00;1.40;;;1.10;;
10894;SDS011;5500;49.886;8.074;2023-11-19T03:16:29;1.50;;;1.17;;
10894;SDS011;5500;49.886;8.074;2023-11-19T03:18:57;1.27;;;0.90;;
10894;SDS011;5500;49.886;8.074;2023-11-19T03:21:28;0.90;;;0.90;;
10894;SDS011;5500;49.886;8.074;2023-11-19T03:23:57;0.80;;;0.80;;
10894;SDS011;5500;49.886;8.074;2023-11-19T03:26:26;1.87;;;0.87;;
10894;SDS011;5500;49.886;8.074;2023-11-19T03:28:54;1.30;;;1.20;;
10894;SDS011;5500;49.886;8.074;2023-11-19T03:31:23;1.20;;;1.10;;
10894;SDS011;5500;49.886;8.074;2023-11-19T03:33:53;1.20;;;1.10;;
10894;SDS011;5500;49.886;8.074;2023-11-19T03:36:24;1.53;;;1.00;;
10894;SDS011;5500;49.886;8.074;2023-11-19T03:38:53;1.87;;;1.30;;
10894;SDS011;5500;49.886;8.074;2023-11-19T03:41:21;2.70;;;0.83;;
10894;SDS011;5500;49.886;8.074;2023-11-19T03:43:48;1.83;;;0.90;;
10894;SDS011;5500;49.886;8.074;2023-11-19T03:46:17;1.00;;;0.90;;
10894;SDS011;5500;49.886;8.074;2023-11-19T03:48:46;2.73;;;0.90;;
10894;SDS011;5500;49.886;8.074;2023-11-19T03:51:13;3.20;;;0.80;;
10894;SDS011;5500;49.886;8.074;2023-11-19T03:53:42;1.00;;;1.00;;
10894;SDS011;5500;49.886;8.074;2023-11-19T03:56:11;0.73;;;0.73;;
10894;SDS011;5500;49.886;8.074;2023-11-19T03:58:39;0.70;;;0.70;;
10894;SDS011;5500;49.886;8.074;2023-11-19T04:01:10;2.10;;;0.80;;
10894;SDS011;5500;49.886;8.074;2023-11-19T04:03:39;0.70;;;0.70;;
10894;SDS011;5500;49.886;8.074;2023-11-19T04:06:16;0.90;;;0.90;;
10894;SDS011;5500;49.886;8.074;2023-11-19T04:08:44;0.67;;;0.67;;
10894;SDS011;5500;49.886;8.074;2023-11-19T04:11:13;1.00;;;0.90;;
10894;SDS011;5500;49.886;8.074;2023-11-19T04:13:40;1.23;;;1.03;;
10894;SDS011;5500;49.886;8.074;2023-11-19T04:16:08;0.93;;;0.90;;
10894;SDS011;5500;49.886;8.074;2023-11-19T04:18:36;0.90;;;0.90;;
10894;SDS011;5500;49.886;8.074;2023-11-19T04:21:05;1.03;;;1.00;;
10894;SDS011;5500;49.886;8.074;2023-11-19T04:23:34;0.77;;;0.77;;
10894;SDS011;5500;49.886;8.074;2023-11-19T04:26:02;1.17;;;1.07;;
10894;SDS011;5500;49.886;8.074;2023-11-19T04:28:34;1.30;;;0.90;;
10894;SDS011;5500;49.886;8.074;2023-11-19T04:31:02;1.43;;;0.90;;
10894;SDS011;5500;49.886;8.074;2023-11-19T04:33:30;1.03;;;0.93;;
10894;SDS011;5500;49.886;8.074;2023-11-19T04:35:58;1.77;;;1.10;;
10894;SDS011;5500;49.886;8.074;2023-11-19T04:38:25;1.30;;;1.20;;
10894;SDS011;5500;49.886;8.074;2023-11-19T04:40:54;2.60;;;1.13;;
10894;SDS011;5500;49.886;8.074;2023-11-19T04:43:23;1.17;;;0.97;;
10894;SDS011;5500;49.886;8.074;2023-11-19T04:45:52;1.23;;;1.17;;
10894;SDS011;5500;49.886;8.074;2023-11-19T04:48:21;5.33;;;1.27;;
10894;SDS011;5500;49.886;8.074;2023-11-19T04:50:48;1.07;;;1.07;;
10894;SDS011;5500;49.886;8.074;2023-11-19T04:53:17;1.30;;;1.20;;
10894;SDS011;5500;49.886;8.074;2023-11-19T04:55:45;1.00;;;1.00;;
10894;SDS011;5500;49.886;8.074;2023-11-19T04:58:13;1.27;;;1.17;;
10894;SDS011;5500;49.886;8.074;2023-11-19T05:00:41;1.57;;;1.47;;
10894;SDS011;5500;49.886;8.074;2023-11-19T05:03:10;2.67;;;1.73;;
10894;SDS011;5500;49.886;8.074;2023-11-19T05:05:38;2.17;;;1.60;;
10894;SDS011;5500;49.886;8.074;2023-11-19T05:08:06;2.17;;;1.53;;
10894;SDS011;5500;49.886;8.074;2023-11-19T05:10:33;2.00;;;1.40;;
10894;SDS011;5500;49.886;8.074;2023-11-19T05:13:03;2.70;;;2.00;;
10894;SDS011;5500;49.886;8.074;2023-11-19T05:15:30;1.67;;;1.53;;
10894;SDS011;5500;49.886;8.074;2023-11-19T05:17:59;1.87;;;1.30;;
10894;SDS011;5500;49.886;8.074;2023-11-19T05:20:28;1.83;;;1.70;;
10894;SDS011;5500;49.886;8.074;2023-11-19T05:22:56;1.50;;;1.40;;
10894;SDS011;5500;49.886;8.074;2023-11-19T05:25:26;2.20;;;1.30;;
10894;SDS011;5500;49.886;8.074;2023-11-19T05:27:54;1.70;;;1.60;;
10894;SDS011;5500;49.886;8.074;2023-11-19T05:30:22;1.80;;;1.70;;
10894;SDS011;5500;49.886;8.074;2023-11-19T05:32:50;1.70;;;1.60;;
10894;SDS011;5500;49.886;8.074;2023-11-19T05:35:18;1.57;;;1.47;;
10894;SDS011;5500;49.886;8.074;2023-11-19T05:37:47;2.20;;;2.00;;
10894;SDS011;5500;49.886;8.074;2023-11-19T05:40:16;1.40;;;1.30;;
10894;SDS011;5500;49.886;8.074;2023-11-19T05:42:45;1.57;;;1.47;;
10894;SDS011;5500;49.886;8.074;2023-11-19T05:45:12;1.93;;;1.80;;
10894;SDS011;5500;49.886;8.074;2023-11-19T05:47:40;1.70;;;1.60;;
10894;SDS011;5500;49.886;8.074;2023-11-19T05:50:09;1.90;;;1.53;;
10894;SDS011;5500;49.886;8.074;2023-11-19T05:52:37;1.70;;;1.60;;
10894;SDS011;5500;49.886;8.074;2023-11-19T05:55:06;2.47;;;1.50;;
10894;SDS011;5500;49.886;8.074;2023-11-19T05:57:36;1.70;;;1.60;;
10894;SDS011;5500;49.886;8.074;2023-11-19T06:00:12;1.90;;;1.70;;
10894;SDS011;5500;49.886;8.074;2023-11-19T06:02:42;1.77;;;1.67;;
10894;SDS011;5500;49.886;8.074;2023-11-19T06:05:09;1.63;;;1.53;;
10894;SDS011;5500;49.886;8.074;2023-11-19T06:07:37;2.50;;;1.60;;
10894;SDS011;5500;49.886;8.074;2023-11-19T06:10:07;1.73;;;1.63;;
10894;SDS011;5500;49.886;8.074;2023-11-19T06:12:36;1.77;;;1.67;;
10894;SDS011;5500;49.886;8.074;2023-11-19T06:15:07;2.33;;;1.80;;
10894;SDS011;5500;49.886;8.074;2023-11-19T06:17:35;1.70;;;1.60;;
10894;SDS011;5500;49.886;8.074;2023-11-19T06:20:04;2.30;;;1.90;;
10894;SDS011;5500;49.886;8.074;2023-11-19T06:22:34;1.90;;;1.80;;
10894;SDS011;5500;49.886;8.074;2023-11-19T06:25:01;1.80;;;1.70;;
10894;SDS011;5500;49.886;8.074;2023-11-19T06:27:35;3.20;;;1.83;;
10894;SDS011;5500;49.886;8.074;2023-11-19T06:30:03;1.37;;;1.27;;
10894;SDS011;5500;49.886;8.074;2023-11-19T06:32:32;1.90;;;1.80;;
10894;SDS011;5500;49.886;8.074;2023-11-19T06:34:59;2.10;;;1.87;;
10894;SDS011;5500;49.886;8.074;2023-11-19T06:37:27;1.43;;;1.33;;
10894;SDS011;5500;49.886;8.074;2023-11-19T06:39:55;1.60;;;1.50;;
10894;SDS011;5500;49.886;8.074;2023-11-19T06:42:22;1.77;;;1.67;;
10894;SDS011;5500;49.886;8.074;2023-11-19T06:44:51;1.40;;;1.30;;
10894;SDS011;5500;49.886;8.074;2023-11-19T06:47:19;1.73;;;1.63;;
10894;SDS011;5500;49.886;8.074;2023-11-19T06:49:47;1.70;;;1.60;;
10894;SDS011;5500;49.886;8.074;2023-11-19T06:52:16;1.60;;;1.50;;
10894;SDS011;5500;49.886;8.074;2023-11-19T06:54:44;1.93;;;1.83;;
10894;SDS011;5500;49.886;8.074;2023-11-19T06:57:12;1.90;;;1.80;;
10894;SDS011;5500;49.886;8.074;2023-11-19T06:59:40;3.60;;;1.43;;
10894;SDS011;5500;49.886;8.074;2023-11-19T07:02:09;1.63;;;1.53;;
10894;SDS011;5500;49.886;8.074;2023-11-19T07:04:37;1.50;;;1.40;;
10894;SDS011;5500;49.886;8.074;2023-11-19T07:07:04;1.60;;;1.50;;
10894;SDS011;5500;49.886;8.074;2023-11-19T07:09:32;1.50;;;1.40;;
10894;SDS011;5500;49.886;8.074;2023-11-19T07:12:00;1.63;;;1.53;;
10894;SDS011;5500;49.886;8.074;2023-11-19T07:14:34;2.00;;;1.90;;
10894;SDS011;5500;49.886;8.074;2023-11-19T07:17:02;2.30;;;1.70;;
10894;SDS011;5500;49.886;8.074;2023-11-19T07:19:31;3.00;;;1.60;;
10894;SDS011;5500;49.886;8.074;2023-11-19T07:21:59;1.43;;;1.33;;
10894;SDS011;5500;49.886;8.074;2023-11-19T07:24:26;4.40;;;2.00;;
10894;SDS011;5500;49.886;8.074;2023-11-19T07:26:54;2.50;;;1.40;;
10894;SDS011;5500;49.886;8.074;2023-11-19T07:29:22;1.37;;;1.23;;
10894;SDS011;5500;49.886;8.074;2023-11-19T07:31:53;1.50;;;1.40;;
10894;SDS011;5500;49.886;8.074;2023-11-19T07:34:20;2.97;;;1.50;;
10894;SDS011;5500;49.886;8.074;2023-11-19T07:36:49;1.77;;;1.23;;
10894;SDS011;5500;49.886;8.074;2023-11-19T07:39:17;3.00;;;1.40;;
10894;SDS011;5500;49.886;8.074;2023-11-19T07:41:46;2.60;;;1.33;;
10894;SDS011;5500;49.886;8.074;2023-11-19T07:44:14;2.70;;;1.30;;
10894;SDS011;5500;49.886;8.074;2023-11-19T07:46:42;2.07;;;1.50;;
10894;SDS011;5500;49.886;8.074;2023-11-19T07:49:11;2.47;;;1.43;;
10894;SDS011;5500;49.886;8.074;2023-11-19T07:51:38;3.20;;;1.30;;
10894;SDS011;5500;49.886;8.074;2023-11-19T07:54:07;1.80;;;1.17;;
10894;SDS011;5500;49.886;8.074;2023-11-19T07:56:35;2.33;;;1.50;;
10894;SDS011;5500;49.886;8.074;2023-11-19T07:59:03;1.87;;;1.30;;
10894;SDS011;5500;49.886;8.074;2023-11-19T08:01:31;2.93;;;1.00;;
10894;SDS011;5500;49.886;8.074;2023-11-19T08:03:59;4.53;;;1.40;;
10894;SDS011;5500;49.886;8.074;2023-11-19T08:06:28;1.63;;;1.20;;
10894;SDS011;5500;49.886;8.074;2023-11-19T08:08:56;3.43;;;1.13;;
10894;SDS011;5500;49.886;8.074;2023-11-19T08:11:25;2.50;;;1.00;;
10894;SDS011;5500;49.886;8.074;2023-11-19T08:13:53;3.13;;;1.13;;
10894;SDS011;5500;49.886;8.074;2023-11-19T08:16:21;4.70;;;1.70;;
10894;SDS011;5500;49.886;8.074;2023-11-19T08:18:48;4.63;;;1.40;;
10894;SDS011;5500;49.886;8.074;2023-11-19T08:21:16;4.57;;;1.20;;
10894;SDS011;5500;49.886;8.074;2023-11-19T08:23:44;2.67;;;1.20;;
10894;SDS011;5500;49.886;8.074;2023-11-19T08:26:11;3.43;;;1.23;;
10894;SDS011;5500;49.886;8.074;2023-11-19T08:28:40;2.60;;;1.23;;
10894;SDS011;5500;49.886;8.074;2023-11-19T08:31:08;4.00;;;1.27;;
10894;SDS011;5500;49.886;8.074;2023-11-19T08:33:36;4.37;;;1.90;;
10894;SDS011;5500;49.886;8.074;2023-11-19T08:36:04;4.57;;;1.60;;
10894;SDS011;5500;49.886;8.074;2023-11-19T08:38:32;4.37;;;1.33;;
10894;SDS011;5500;49.886;8.074;2023-11-19T08:41:00;5.70;;;1.67;;
10894;SDS011;5500;49.886;8.074;2023-11-19T08:43:27;7.07;;;1.50;;
10894;SDS011;5500;49.886;8.074;2023-11-19T08:45:58;4.97;;;1.83;;
10894;SDS011;5500;49.886;8.074;2023-11-19T08:48:26;3.77;;;1.67;;
10894;SDS011;5500;49.886;8.074;2023-11-19T08:50:54;3.23;;;1.17;;
10894;SDS011;5500;49.886;8.074;2023-11-19T08:53:21;4.67;;;1.40;;
10894;SDS011;5500;49.886;8.074;2023-11-19T08:55:49;4.97;;;1.50;;
10894;SDS011;5500;49.886;8.074;2023-11-19T08:58:17;5.30;;;2.10;;
10894;SDS011;5500;49.886;8.074;2023-11-19T09:00:45;4.63;;;1.77;;
10894;SDS011;5500;49.886;8.074;2023-11-19T09:03:14;4.17;;;1.03;;
10894;SDS011;5500;49.886;8.074;2023-11-19T09:05:42;3.63;;;1.80;;
10894;SDS011;5500;49.886;8.074;2023-11-19T09:08:09;5.50;;;1.40;;
10894;SDS011;5500;49.886;8.074;2023-11-19T09:10:38;4.13;;;1.57;;
10894;SDS011;5500;49.886;8.074;2023-11-19T09:13:05;6.83;;;1.80;;
10894;SDS011;5500;49.886;8.074;2023-11-19T09:15:34;7.30;;;1.80;;
10894;SDS011;5500;49.886;8.074;2023-11-19T09:18:01;7.53;;;2.03;;
10894;SDS011;5500;49.886;8.074;2023-11-19T09:20:31;6.97;;;2.00;;
10894;SDS011;5500;49.886;8.074;2023-11-19T09:23:04;6.57;;;1.50;;
10894;SDS011;5500;49.886;8.074;2023-11-19T09:25:32;5.93;;;1.63;;
10894;SDS011;5500;49.886;8.074;2023-11-19T09:28:03;4.73;;;1.73;;
10894;SDS011;5500;49.886;8.074;2023-11-19T09:30:31;5.40;;;1.90;;
10894;SDS011;5500;49.886;8.074;2023-11-19T09:33:00;4.60;;;1.70;;
10894;SDS011;5500;49.886;8.074;2023-11-19T09:35:28;5.97;;;1.50;;
10894;SDS011;5500;49.886;8.074;2023-11-19T09:37:58;8.07;;;2.07;;
10894;SDS011;5500;49.886;8.074;2023-11-19T09:40:29;2.17;;;1.23;;
10894;SDS011;5500;49.886;8.074;2023-11-19T09:42:58;5.37;;;1.60;;
10894;SDS011;5500;49.886;8.074;2023-11-19T09:45:26;9.03;;;2.17;;
10894;SDS011;5500;49.886;8.074;2023-11-19T09:47:55;17.93;;;1.73;;
10894;SDS011;5500;49.886;8.074;2023-11-19T09:50:24;6.80;;;1.80;;
10894;SDS011;5500;49.886;8.074;2023-11-19T09:52:52;3.70;;;1.70;;
10894;SDS011;5500;49.886;8.074;2023-11-19T09:55:21;5.37;;;1.90;;
10894;SDS011;5500;49.886;8.074;2023-11-19T09:57:49;5.83;;;1.77;;
10894;SDS011;5500;49.886;8.074;2023-11-19T10:00:17;4.57;;;1.87;;
10894;SDS011;5500;49.886;8.074;2023-11-19T10:02:47;4.63;;;1.70;;
10894;SDS011;5500;49.886;8.074;2023-11-19T10:05:16;11.27;;;2.33;;
10894;SDS011;5500;49.886;8.074;2023-11-19T10:07:44;9.83;;;2.30;;
10894;SDS011;5500;49.886;8.074;2023-11-19T10:10:12;5.03;;;1.63;;
10894;SDS011;5500;49.886;8.074;2023-11-19T10:12:46;8.47;;;2.53;;
10894;SDS011;5500;49.886;8.074;2023-11-19T10:15:19;6.33;;;2.37;;
10894;SDS011;5500;49.886;8.074;2023-11-19T10:17:48;4.10;;;1.73;;
10894;SDS011;5500;49.886;8.074;2023-11-19T10:20:16;5.63;;;1.80;;
10894;SDS011;5500;49.886;8.074;2023-11-19T10:22:43;8.10;;;2.00;;
10894;SDS011;5500;49.886;8.074;2023-11-19T10:25:21;8.47;;;1.93;;
10894;SDS011;5500;49.886;8.074;2023-11-19T10:27:51;5.93;;;1.97;;
10894;SDS011;5500;49.886;8.074;2023-11-19T10:30:20;5.17;;;1.77;;
10894;SDS011;5500;49.886;8.074;2023-11-19T10:33:02;5.13;;;1.77;;
10894;SDS011;5500;49.886;8.074;2023-11-19T10:35:32;8.57;;;2.10;;
10894;SDS011;5500;49.886;8.074;2023-11-19T10:38:00;3.50;;;1.50;;
10894;SDS011;5500;49.886;8.074;2023-11-19T10:40:37;4.60;;;1.63;;
10894;SDS011;5500;49.886;8.074;2023-11-19T10:43:07;3.07;;;1.43;;
10894;SDS011;5500;49.886;8.074;2023-11-19T10:45:35;4.60;;;1.50;;
10894;SDS011;5500;49.886;8.074;2023-11-19T10:48:04;4.37;;;1.77;;
10894;SDS011;5500;49.886;8.074;2023-11-19T10:50:33;3.70;;;1.40;;
10894;SDS011;5500;49.886;8.074;2023-11-19T10:53:02;4.50;;;1.33;;
10894;SDS011;5500;49.886;8.074;2023-11-19T10:55:31;3.43;;;1.40;;
10894;SDS011;5500;49.886;8.074;2023-11-19T10:58:01;3.20;;;1.20;;
10894;SDS011;5500;49.886;8.074;2023-11-19T11:00:36;4.20;;;1.47;;
10894;SDS011;5500;49.886;8.074;2023-11-19T11:03:08;5.97;;;1.43;;
10894;SDS011;5500;49.886;8.074;2023-11-19T11:05:38;2.67;;;1.13;;
10894;SDS011;5500;49.886;8.074;2023-11-19T11:08:06;4.20;;;1.20;;
10894;SDS011;5500;49.886;8.074;2023-11-19T11:10:34;4.37;;;1.40;;
10894;SDS011;5500;49.886;8.074;2023-11-19T11:13:23;4.60;;;1.40;;
10894;SDS011;5500;49.886;8.074;2023-11-19T11:15:52;6.13;;;1.57;;
10894;SDS011;5500;49.886;8.074;2023-11-19T11:18:22;6.50;;;2.17;;
10894;SDS011;5500;49.886;8.074;2023-11-19T11:20:51;5.00;;;1.40;;
10894;SDS011;5500;49.886;8.074;2023-11-19T11:26:26;7.17;;;1.70;;
10894;SDS011;5500;49.886;8.074;2023-11-19T11:29:01;7.23;;;1.80;;
10894;SDS011;5500;49.886;8.074;2023-11-19T11:31:34;6.90;;;1.80;;
10894;SDS011;5500;49.886;8.074;2023-11-19T11:34:10;5.93;;;1.83;;
10894;SDS011;5500;49.886;8.074;2023-11-19T11:36:48;8.20;;;1.80;;
10894;SDS011;5500;49.886;8.074;2023-11-19T11:39:21;5.43;;;1.63;;
10894;SDS011;5500;49.886;8.074;2023-11-19T11:42:04;3.87;;;1.53;;
10894;SDS011;5500;49.886;8.074;2023-11-19T11:44:58;8.33;;;2.00;;
10894;SDS011;5500;49.886;8.074;2023-11-19T11:50:51;7.80;;;2.17;;
10894;SDS011;5500;49.886;8.074;2023-11-19T11:53:21;8.20;;;2.17;;
10894;SDS011;5500;49.886;8.074;2023-11-19T11:55:55;7.87;;;2.17;;
10894;SDS011;5500;49.886;8.074;2023-11-19T11:58:26;8.53;;;2.00;;
10894;SDS011;5500;49.886;8.074;2023-11-19T12:00:58;8.60;;;1.90;;
10894;SDS011;5500;49.886;8.074;2023-11-19T12:03:29;6.47;;;2.13;;
10894;SDS011;5500;49.886;8.074;2023-11-19T12:05:58;5.53;;;2.00;;
10894;SDS011;5500;49.886;8.074;2023-11-19T12:08:27;6.77;;;2.10;;
10894;SDS011;5500;49.886;8.074;2023-11-19T12:10:56;10.20;;;2.00;;
10894;SDS011;5500;49.886;8.074;2023-11-19T12:13:42;6.93;;;2.23;;
10894;SDS011;5500;49.886;8.074;2023-11-19T12:16:13;6.30;;;2.13;;
10894;SDS011;5500;49.886;8.074;2023-11-19T12:18:43;4.23;;;1.63;;
10894;SDS011;5500;49.886;8.074;2023-11-19T12:21:11;5.67;;;1.83;;
10894;SDS011;5500;49.886;8.074;2023-11-19T12:23:55;6.60;;;2.10;;
10894;SDS011;5500;49.886;8.074;2023-11-19T12:26:36;7.93;;;2.03;;
10894;SDS011;5500;49.886;8.074;2023-11-19T12:29:05;6.07;;;2.03;;
10894;SDS011;5500;49.886;8.074;2023-11-19T12:31:35;11.50;;;2.50;;
10894;SDS011;5500;49.886;8.074;2023-11-19T12:34:11;6.60;;;2.17;;
10894;SDS011;5500;49.886;8.074;2023-11-19T12:36:41;6.13;;;1.77;;
10894;SDS011;5500;49.886;8.074;2023-11-19T12:39:09;4.77;;;1.60;;
10894;SDS011;5500;49.886;8.074;2023-11-19T12:41:49;7.77;;;2.30;;
10894;SDS011;5500;49.886;8.074;2023-11-19T12:44:20;7.17;;;1.83;;
10894;SDS011;5500;49.886;8.074;2023-11-19T12:47:04;8.43;;;1.93;;
10894;SDS011;5500;49.886;8.074;2023-11-19T12:49:34;7.10;;;2.00;;
10894;SDS011;5500;49.886;8.074;2023-11-19T12:52:10;5.07;;;1.83;;
10894;SDS011;5500;49.886;8.074;2023-11-19T12:54:39;5.23;;;2.03;;
10894;SDS011;5500;49.886;8.074;2023-11-19T12:57:06;6.20;;;2.23;;
10894;SDS011;5500;49.886;8.074;2023-11-19T12:59:34;6.50;;;1.73;;
10894;SDS011;5500;49.886;8.074;2023-11-19T13:02:02;7.67;;;2.30;;
10894;SDS011;5500;49.886;8.074;2023-11-19T13:04:33;8.07;;;1.60;;
10894;SDS011;5500;49.886;8.074;2023-11-19T13:07:02;4.43;;;1.93;;
10894;SDS011;5500;49.886;8.074;2023-11-19T13:09:32;7.43;;;1.70;;
10894;SDS011;5500;49.886;8.074;2023-11-19T13:12:11;6.47;;;1.63;;
10894;SDS011;5500;49.886;8.074;2023-11-19T13:14:40;7.37;;;2.00;;
10894;SDS011;5500;49.886;8.074;2023-11-19T13:17:08;6.73;;;1.90;;
10894;SDS011;5500;49.886;8.074;2023-11-19T13:19:37;6.07;;;1.87;;
10894;SDS011;5500;49.886;8.074;2023-11-19T13:22:05;4.40;;;1.73;;
10894;SDS011;5500;49.886;8.074;2023-11-19T13:24:33;6.80;;;2.00;;
10894;SDS011;5500;49.886;8.074;2023-11-19T13:27:00;5.60;;;1.83;;
10894;SDS011;5500;49.886;8.074;2023-11-19T13:29:28;5.50;;;2.13;;
10894;SDS011;5500;49.886;8.074;2023-11-19T13:31:58;4.63;;;1.70;;
10894;SDS011;5500;49.886;8.074;2023-11-19T13:34:26;6.67;;;2.10;;
10894;SDS011;5500;49.886;8.074;2023-11-19T13:36:55;5.43;;;2.10;;
10894;SDS011;5500;49.886;8.074;2023-11-19T13:39:23;6.43;;;1.90;;
10894;SDS011;5500;49.886;8.074;2023-11-19T13:41:50;4.73;;;1.90;;
10894;SDS011;5500;49.886;8.074;2023-11-19T13:44:18;7.73;;;2.53;;
10894;SDS011;5500;49.886;8.074;2023-11-19T13:46:46;7.30;;;2.13;;
10894;SDS011;5500;49.886;8.074;2023-11-19T13:49:14;3.57;;;2.00;;
10894;SDS011;5500;49.886;8.074;2023-11-19T13:51:41;8.80;;;2.37;;
10894;SDS011;5500;49.886;8.074;2023-11-19T13:54:11;3.83;;;1.57;;
10894;SDS011;5500;49.886;8.074;2023-11-19T13:56:40;10.53;;;1.90;;
10894;SDS011;5500;49.886;8.074;2023-11-19T13:59:10;7.60;;;2.60;;
10894;SDS011;5500;49.886;8.074;2023-11-19T14:01:38;6.67;;;2.03;;
10894;SDS011;5500;49.886;8.074;2023-11-19T14:04:06;6.97;;;2.10;;
10894;SDS011;5500;49.886;8.074;2023-11-19T14:06:36;9.97;;;2.33;;
10894;SDS011;5500;49.886;8.074;2023-11-19T14:09:04;7.40;;;2.23;;
10894;SDS011;5500;49.886;8.074;2023-11-19T14:11:35;5.43;;;1.83;;
10894;SDS011;5500;49.886;8.074;2023-11-19T14:14:03;6.90;;;2.53;;
10894;SDS011;5500;49.886;8.074;2023-11-19T14:16:31;10.80;;;2.50;;
10894;SDS011;5500;49.886;8.074;2023-11-19T14:19:00;6.30;;;1.63;;
10894;SDS011;5500;49.886;8.074;2023-11-19T14:21:28;5.77;;;1.77;;
10894;SDS011;5500;49.886;8.074;2023-11-19T14:23:57;7.43;;;2.27;;
10894;SDS011;5500;49.886;8.074;2023-11-19T14:26:25;5.87;;;2.33;;
10894;SDS011;5500;49.886;8.074;2023-11-19T14:28:54;5.60;;;1.83;;
10894;SDS011;5500;49.886;8.074;2023-11-19T14:31:22;5.23;;;1.73;;
10894;SDS011;5500;49.886;8.074;2023-11-19T14:33:49;6.80;;;2.27;;
10894;SDS011;5500;49.886;8.074;2023-11-19T14:36:17;8.03;;;2.47;;
10894;SDS011;5500;49.886;8.074;2023-11-19T14:38:45;5.33;;;1.67;;
10894;SDS011;5500;49.886;8.074;2023-11-19T14:41:13;5.03;;;2.07;;
10894;SDS011;5500;49.886;8.074;2023-11-19T14:43:40;9.63;;;2.13;;
10894;SDS011;5500;49.886;8.074;2023-11-19T14:46:09;6.57;;;1.80;;
10894;SDS011;5500;49.886;8.074;2023-11-19T14:48:37;6.37;;;2.43;;
10894;SDS011;5500;49.886;8.074;2023-11-19T14:51:05;6.77;;;2.17;;
10894;SDS011;5500;49.886;8.074;2023-11-19T14:53:33;7.57;;;1.80;;
10894;SDS011;5500;49.886;8.074;2023-11-19T14:56:01;6.50;;;1.97;;
10894;SDS011;5500;49.886;8.074;2023-11-19T14:58:31;7.20;;;2.53;;
10894;SDS011;5500;49.886;8.074;2023-11-19T15:00:59;7.17;;;1.97;;
10894;SDS011;5500;49.886;8.074;2023-11-19T15:03:28;7.17;;;2.23;;
10894;SDS011;5500;49.886;8.074;2023-11-19T15:05:55;9.57;;;2.30;;
10894;SDS011;5500;49.886;8.074;2023-11-19T15:08:26;8.37;;;2.40;;
10894;SDS011;5500;49.886;8.074;2023-11-19T15:10:54;10.83;;;2.53;;
10894;SDS011;5500;49.886;8.074;2023-11-19T15:13:23;6.30;;;2.13;;
10894;SDS011;5500;49.886;8.074;2023-11-19T15:15:51;4.67;;;1.60;;
10894;SDS011;5500;49.886;8.074;2023-11-19T15:18:22;6.30;;;2.10;;